createdAt,value
2019-02-12T00:03:23.001Z,10.60
2019-02-12T00:08:31.300Z,9.11
2019-02-12T00:13:39.673Z,9.56
2019-02-12T00:18:47.851Z,7.35
2019-02-12T00:23:55.980Z,8.52
2019-02-12T00:29:04.378Z,6.95
2019-02-12T00:34:12.612Z,6.36
2019-02-12T00:39:21.177Z,6.48
2019-02-12T00:44:29.316Z,7.74
2019-02-12T00:49:37.574Z,8.71
2019-02-12T00:54:46.038Z,7.56
2019-02-12T00:59:54.310Z,6.94
2019-02-12T01:05:04.335Z,8.96
2019-02-12T01:10:10.413Z,5.19
2019-02-12T01:15:18.576Z,4.83
2019-02-12T01:20:26.895Z,4.60
2019-02-12T01:25:35.113Z,7.01
2019-02-12T01:30:43.312Z,7.48
2019-02-12T01:35:51.754Z,8.03
2019-02-12T01:41:00.017Z,9.67
2019-02-12T01:46:09.019Z,8.06
2019-02-12T01:51:17.197Z,5.17
2019-02-12T01:56:25.236Z,10.11
2019-02-12T02:01:34.878Z,7.09
2019-02-12T02:06:43.237Z,8.54
2019-02-12T02:11:51.329Z,5.74
2019-02-12T02:16:59.572Z,6.02
2019-02-12T02:22:07.838Z,6.40
2019-02-12T02:27:15.969Z,7.52
2019-02-12T02:32:24.280Z,6.94
2019-02-12T02:37:32.650Z,5.67
2019-02-12T02:42:41.445Z,6.59
2019-02-12T02:47:49.632Z,7.58
2019-02-12T02:52:58.101Z,7.05
2019-02-12T02:58:06.325Z,8.38
2019-02-12T03:03:14.669Z,5.12
2019-02-12T03:08:23.234Z,7.88
2019-02-12T03:13:31.366Z,7.83
2019-02-12T03:18:39.985Z,6.76
2019-02-12T03:23:48.328Z,6.39
2019-02-12T03:28:56.716Z,4.64
2019-02-12T03:34:04.986Z,7.22
2019-02-12T03:39:12.986Z,5.30
2019-02-12T03:44:21.330Z,7.89
2019-02-12T03:49:29.522Z,7.24
2019-02-12T03:54:37.798Z,7.43
2019-02-12T03:59:46.053Z,4.63
2019-02-12T04:04:54.229Z,6.76
2019-02-12T04:10:02.550Z,6.74
2019-02-12T04:15:10.712Z,6.43
2019-02-12T04:20:19.190Z,10.80
2019-02-12T04:25:27.470Z,7.49
2019-02-12T04:30:35.854Z,6.31
2019-02-12T04:35:44.313Z,5.21
2019-02-12T04:40:52.552Z,5.85
2019-02-12T04:46:01.295Z,4.90
2019-02-12T04:51:09.464Z,8.75
2019-02-12T04:56:17.789Z,7.61
2019-02-12T05:01:26.276Z,5.65
2019-02-12T05:06:34.398Z,7.18
2019-02-12T05:11:42.642Z,6.67
2019-02-12T05:16:50.917Z,6.09
2019-02-12T05:21:59.185Z,5.61
2019-02-12T05:27:07.611Z,6.26
2019-02-12T05:32:15.732Z,6.32
2019-02-12T05:37:23.942Z,4.93
2019-02-12T05:42:32.692Z,6.56
2019-02-12T05:47:40.930Z,8.42
2019-02-12T05:52:54.423Z,7.89
2019-02-12T05:57:56.981Z,9.02
2019-02-12T06:03:05.237Z,9.16
2019-02-12T06:08:13.574Z,8.57
2019-02-12T06:13:21.745Z,8.90
2019-02-12T06:18:30.384Z,9.48
2019-02-12T06:23:38.592Z,11.61
2019-02-12T06:28:46.876Z,8.62
2019-02-12T06:33:55.107Z,8.88
2019-02-12T06:39:03.446Z,10.64
2019-02-12T06:44:11.688Z,11.36
2019-02-12T06:49:19.940Z,9.45
2019-02-12T06:54:28.274Z,10.47
2019-02-12T06:59:36.528Z,9.51
2019-02-12T07:04:44.761Z,8.64
2019-02-12T07:09:53.370Z,9.44
2019-02-12T07:14:53.421Z,7.25
2019-02-12T07:20:01.776Z,10.57
2019-02-12T07:25:10.345Z,7.65
2019-02-12T07:30:18.698Z,8.07
2019-02-12T07:35:26.794Z,10.06
2019-02-12T07:40:35.225Z,9.63
2019-02-12T07:45:43.435Z,9.18
2019-02-12T07:50:51.637Z,9.16
2019-02-12T07:55:59.785Z,9.42
2019-02-12T08:01:08.540Z,7.90
2019-02-12T08:06:16.536Z,8.45
2019-02-12T08:11:24.909Z,10.96
2019-02-12T08:16:32.940Z,20.02
2019-02-12T08:21:41.342Z,12.24
2019-02-12T08:26:49.607Z,10.77
2019-02-12T08:31:57.911Z,13.56
2019-02-12T08:37:05.981Z,12.52
2019-02-12T08:42:14.129Z,11.37
2019-02-12T08:47:22.288Z,11.64
2019-02-12T08:52:30.542Z,11.28
2019-02-12T08:57:39.038Z,11.80
2019-02-12T09:02:47.331Z,11.08
2019-02-12T09:07:55.822Z,14.14
2019-02-12T09:13:04.133Z,10.49
2019-02-12T09:18:12.387Z,13.74
2019-02-12T09:33:37.086Z,12.38
2019-02-12T09:43:53.746Z,15.15
2019-02-12T09:49:01.933Z,11.69
2019-02-12T10:14:43.101Z,13.97
2019-02-12T10:19:51.229Z,16.34
2019-02-12T10:24:59.484Z,19.00
2019-02-12T10:35:15.856Z,13.26
2019-02-12T10:45:32.449Z,10.59
2019-02-12T10:50:40.746Z,15.14
2019-02-12T10:55:41.310Z,9.33
2019-02-12T11:00:49.568Z,9.15
2019-02-12T11:05:57.725Z,12.02
2019-02-12T11:31:39.853Z,10.28
2019-02-12T11:36:48.093Z,8.14
2019-02-12T11:41:56.273Z,10.70
2019-02-12T11:47:04.654Z,7.70
2019-02-12T11:52:12.849Z,9.29
2019-02-12T11:57:21.089Z,7.97
2019-02-12T12:02:29.291Z,11.62
2019-02-12T12:17:54.552Z,7.74
2019-02-12T12:23:02.708Z,8.14
2019-02-12T12:28:11.028Z,9.17
2019-02-12T12:33:19.080Z,7.49
2019-02-12T12:38:27.190Z,8.64
2019-02-12T12:43:35.277Z,6.71
2019-02-12T12:48:43.724Z,7.67
2019-02-12T12:53:51.838Z,6.02
2019-02-12T12:59:00.269Z,6.28
2019-02-12T13:04:09.207Z,5.65
2019-02-12T13:09:17.473Z,6.84
2019-02-12T13:14:25.632Z,5.76
2019-02-12T13:24:42.133Z,4.69
2019-02-12T13:29:50.337Z,5.25
2019-02-12T13:34:58.600Z,4.89
2019-02-12T13:45:14.980Z,8.32
2019-02-12T13:50:23.090Z,5.47
2019-02-12T13:55:32.157Z,5.81
2019-02-12T14:00:40.457Z,5.88
2019-02-12T14:16:05.599Z,8.30
2019-02-12T14:21:13.789Z,9.51
2019-02-12T14:31:30.281Z,9.96
2019-02-12T14:36:38.472Z,9.00
2019-02-12T14:41:46.797Z,6.46
2019-02-12T14:46:55.057Z,9.23
2019-02-12T14:52:03.272Z,6.31
2019-02-12T14:57:11.355Z,10.87
2019-02-12T15:07:27.920Z,8.30
2019-02-12T15:12:36.165Z,10.17
2019-02-12T15:22:52.652Z,8.61
2019-02-12T15:28:00.954Z,11.07
2019-02-12T15:38:17.810Z,9.43
2019-02-12T15:43:26.051Z,8.95
2019-02-12T15:48:34.474Z,10.38
2019-02-12T15:58:53.654Z,14.02
2019-02-12T16:04:00.410Z,9.30
2019-02-12T16:29:43.501Z,9.41
2019-02-12T16:34:52.040Z,7.72
2019-02-12T16:40:00.633Z,10.33
2019-02-12T16:45:08.865Z,10.77
2019-02-12T17:00:34.394Z,12.77
2019-02-12T17:10:52.356Z,9.20
2019-02-12T17:26:17.948Z,14.15
2019-02-12T17:46:52.175Z,12.31
2019-02-12T18:02:17.845Z,15.70
2019-02-12T18:12:34.886Z,15.29
2019-02-12T18:33:09.126Z,16.68
2019-02-12T18:38:17.574Z,16.00
2019-02-12T18:43:26.078Z,14.97
2019-02-12T18:53:43.106Z,15.17
2019-02-12T18:58:51.680Z,20.40
2019-02-12T19:03:59.953Z,13.82
2019-02-12T19:09:08.629Z,14.30
2019-02-12T19:24:34.210Z,17.19
2019-02-12T19:29:42.568Z,17.51
2019-02-12T19:34:50.803Z,19.71
2019-02-12T19:40:00.358Z,18.28
2019-02-12T19:45:09.770Z,17.76
2019-02-12T19:50:18.595Z,20.82
2019-02-12T19:55:26.873Z,23.26
2019-02-12T20:00:35.155Z,20.75
2019-02-12T20:05:43.508Z,21.20
2019-02-12T20:10:51.783Z,21.45
2019-02-12T20:16:00.212Z,20.93
2019-02-12T20:21:08.423Z,21.04
2019-02-12T20:26:16.533Z,22.41
2019-02-12T20:31:24.771Z,22.09
2019-02-12T20:36:32.821Z,20.42
2019-02-12T20:41:40.918Z,22.03
2019-02-12T20:46:49.510Z,23.98
2019-02-12T20:51:57.768Z,22.86
2019-02-12T20:57:14.559Z,23.22
2019-02-12T21:02:14.276Z,21.96
2019-02-12T21:07:22.422Z,21.61
2019-02-12T21:12:30.705Z,24.61
2019-02-12T21:17:38.821Z,23.39
2019-02-12T21:22:47.121Z,25.04
2019-02-12T21:27:55.346Z,23.89
2019-02-12T21:33:03.461Z,25.21
2019-02-12T21:38:11.677Z,26.02
2019-02-12T21:43:19.904Z,23.97
2019-02-12T21:48:28.045Z,24.58
2019-02-12T21:53:36.424Z,23.78
2019-02-12T21:58:45.061Z,25.01
2019-02-12T22:03:53.269Z,25.91
2019-02-12T22:09:01.456Z,27.30
2019-02-12T22:14:09.855Z,25.36
2019-02-12T22:19:17.959Z,28.44
2019-02-12T22:24:26.167Z,25.75
2019-02-12T22:29:34.304Z,25.43
2019-02-12T22:34:42.599Z,28.27
2019-02-12T22:39:50.760Z,26.91
2019-02-12T22:44:59.028Z,25.70
2019-02-12T22:50:08.971Z,27.56
2019-02-12T22:55:07.841Z,27.34
2019-02-12T23:00:16.259Z,29.10
2019-02-12T23:05:24.739Z,29.65
2019-02-12T23:10:33.013Z,29.00
2019-02-12T23:15:41.355Z,31.62
2019-02-12T23:20:49.934Z,31.00
2019-02-12T23:25:58.154Z,30.46
2019-02-12T23:31:06.612Z,32.73
2019-02-12T23:36:15.035Z,30.81
2019-02-12T23:41:23.518Z,29.86
2019-02-12T23:46:31.849Z,31.39
2019-02-12T23:51:40.037Z,31.42
2019-02-12T23:56:48.260Z,33.16
